• Join FlightAware (Why Join?)
  • Login
  • US Flag 
Rudolph Flight #1: Arrived! 
02:00PM EST


 

Airport Tracker/Info


-or-


 

Live Flight TrackerFlight Track Log ✈ DAL6035 ✈ 25-Apr-2013 ✈ KLGA - KMHT

Flight Track Log - Related Links

Times and Time Zones

All times are in EDT time to prevent confusion due to time zone crossing. See the DAL6035 flight status page for this flight to view local times or setup timezone preferences in your user account.

Time Position Orientation Groundspeed Altitude Reporting Facility
EDT Latitude Longitude Course Direction KTS MPH feet Rate Location/Type
12:54PM 40.8000 -73.8500 27° Northeast 156 180 1,100  Level New York TRACON
12:55PM 40.8500 -73.8167 27° Northeast 221 254 3,100 2,220 Climbing New York TRACON
12:56PM 40.9000 -73.7667 37° Northeast 244 281 5,600 2,220 Climbing New York TRACON
12:58PM 41.1351 -73.5818 33° Northeast  Level FlightAware Approximate
12:58PM 40.9869 -73.6803 37° Northeast 276 318 8,900  Level Boston Center
12:59PM 41.2246 -73.5036 33° Northeast  Level FlightAware Approximate
12:59PM 41.0542 -73.6153 36° Northeast 287 330 10,900  Level Boston Center
01:00PM 41.3173 -73.4329 27° Northeast  Level FlightAware Approximate
01:00PM 41.1403 -73.5508 29° Northeast 315 362 12,400  Level Boston Center
01:01PM 41.2181 -73.4914 30° Northeast 342 394 13,800 1,440 Climbing Boston Center
01:02PM 41.3147 -73.4019 35° Northeast 364 419 15,300 1,380 Climbing Boston Center
01:03PM 41.4092 -73.3175 34° Northeast 388 447 16,600 840 Climbing Boston Center
01:04PM 41.4972 -73.2356 35° Northeast 420 483 17,000 180 Climbing Boston Center
01:05PM 41.6167 -73.1258 34° Northeast 450 518 17,000  Level Boston Center
01:06PM 41.7172 -73.0519 29° Northeast 465 535 17,000  Level Boston Center
01:07PM 41.8281 -72.9722 28° Northeast 452 520 17,000  Level Boston Center
01:08PM 41.9325 -72.9033 26° Northeast 435 501 17,000 -60 Level Boston Center
01:09PM 42.0331 -72.8314 28° Northeast 413 475 16,900 -720 Descending Boston Center
01:11PM 42.2292 -72.6925 28° Northeast 378 435 15,000 -660 Descending Boston Center
01:12PM 42.3272 -72.6225 28° Northeast 381 438 15,000  Level Boston Center
01:13PM 42.4192 -72.5583 27° Northeast 387 445 15,000  Level Boston Center
01:14PM 42.5233 -72.4881 26° Northeast 399 459 15,100  Climbing Boston Center
01:15PM 42.6483 -72.3978 28° Northeast 409 471 15,100 -840 Level Boston Center
01:16PM 42.7464 -72.3269 28° Northeast 409 471 13,500 -1,860 Descending Boston Center
01:17PM 42.7961 -72.2025 61° Northeast 362 417 11,400 -1,740 Descending Boston Center
01:18PM 42.8103 -72.0694 82° East 327 376 10,100 -1,560 Descending Boston Center
01:19PM 42.8183 -71.9703 84° East 307 353 8,300 -1,800 Descending Boston Center
01:20PM 42.8283 -71.8511 83° East 291 335 6,600 -1,500 Descending Boston Center
01:21PM 42.8236 -71.7578 94° East 279 321 5,400 -1,200 Descending Boston Center
01:22PM 42.8144 -71.6561 97° East 255 293 4,200 -1,080 Descending Boston Center
01:23PM 42.8078 -71.5714 96° East 250 288 3,300 -840 Descending Boston Center
01:24PM 42.7986 -71.4753 97° East 245 282 2,600 -720 Descending Boston Center